sensor_id;sensor_type;location;lat;lon;timestamp;P1;P2;P0
66336;PMS1003;53139;45.576;5.304;2022-09-28T00:02:24;0.00;0.00;0.00
66336;PMS1003;53139;45.576;5.304;2022-09-28T00:05:25;2.00;1.00;1.00
66336;PMS1003;53139;45.576;5.304;2022-09-28T00:08:25;1.00;1.00;0.50
66336;PMS1003;53139;45.576;5.304;2022-09-28T00:11:26;1.75;1.00;0.00
66336;PMS1003;53139;45.576;5.304;2022-09-28T00:14:27;0.00;0.00;0.00
66336;PMS1003;53139;45.576;5.304;2022-09-28T00:17:27;0.33;0.00;0.00
66336;PMS1003;53139;45.576;5.304;2022-09-28T00:20:27;0.00;0.00;0.00
66336;PMS1003;53139;45.576;5.304;2022-09-28T00:23:28;0.25;0.25;0.00
66336;PMS1003;53139;45.576;5.304;2022-09-28T00:26:30;2.00;0.00;0.00
66336;PMS1003;53139;45.576;5.304;2022-09-28T00:29:33;1.00;0.00;0.00
66336;PMS1003;53139;45.576;5.304;2022-09-28T00:32:35;0.50;0.00;0.00
66336;PMS1003;53139;45.576;5.304;2022-09-28T00:35:35;1.00;0.00;0.00
66336;PMS1003;53139;45.576;5.304;2022-09-28T00:38:35;0.00;0.00;0.00
66336;PMS1003;53139;45.576;5.304;2022-09-28T00:41:39;2.00;0.00;0.00
66336;PMS1003;53139;45.576;5.304;2022-09-28T00:44:41;1.00;1.00;1.00
66336;PMS1003;53139;45.576;5.304;2022-09-28T00:47:53;0.00;0.00;0.00
66336;PMS1003;53139;45.576;5.304;2022-09-28T00:50:58;1.00;1.00;1.00
66336;PMS1003;53139;45.576;5.304;2022-09-28T00:54:02;0.00;0.00;0.00
66336;PMS1003;53139;45.576;5.304;2022-09-28T00:57:06;3.25;1.00;1.00
66336;PMS1003;53139;45.576;5.304;2022-09-28T01:00:07;0.00;0.00;0.00
66336;PMS1003;53139;45.576;5.304;2022-09-28T01:03:09;2.00;0.00;0.00
66336;PMS1003;53139;45.576;5.304;2022-09-28T01:06:20;0.00;0.00;0.00
66336;PMS1003;53139;45.576;5.304;2022-09-28T01:09:22;0.00;0.00;0.00
66336;PMS1003;53139;45.576;5.304;2022-09-28T01:12:24;0.00;0.00;0.00
66336;PMS1003;53139;45.576;5.304;2022-09-28T01:15:25;0.00;0.00;0.00
66336;PMS1003;53139;45.576;5.304;2022-09-28T01:18:38;0.00;0.00;0.00
66336;PMS1003;53139;45.576;5.304;2022-09-28T01:21:50;1.00;0.00;0.00
66336;PMS1003;53139;45.576;5.304;2022-09-28T01:28:14;0.00;0.00;0.00
66336;PMS1003;53139;45.576;5.304;2022-09-28T01:31:16;0.75;0.75;0.75
66336;PMS1003;53139;45.576;5.304;2022-09-28T01:34:53;0.00;0.00;0.00
66336;PMS1003;53139;45.576;5.304;2022-09-28T01:37:52;0.00;0.00;0.00
66336;PMS1003;53139;45.576;5.304;2022-09-28T01:40:59;0.00;0.00;0.00
66336;PMS1003;53139;45.576;5.304;2022-09-28T01:44:00;1.25;0.00;0.00
66336;PMS1003;53139;45.576;5.304;2022-09-28T01:47:03;0.00;0.00;0.00
66336;PMS1003;53139;45.576;5.304;2022-09-28T01:50:09;0.00;0.00;0.00
66336;PMS1003;53139;45.576;5.304;2022-09-28T01:53:18;0.00;0.00;0.00
66336;PMS1003;53139;45.576;5.304;2022-09-28T01:56:32;0.00;0.00;0.00
66336;PMS1003;53139;45.576;5.304;2022-09-28T01:59:37;0.00;0.00;0.00
66336;PMS1003;53139;45.576;5.304;2022-09-28T02:05:53;2.50;0.00;0.00
66336;PMS1003;53139;45.576;5.304;2022-09-28T02:08:57;1.00;0.00;0.00
66336;PMS1003;53139;45.576;5.304;2022-09-28T02:12:08;0.00;0.00;0.00
66336;PMS1003;53139;45.576;5.304;2022-09-28T02:18:29;0.00;0.00;0.00
66336;PMS1003;53139;45.576;5.304;2022-09-28T02:21:38;0.00;0.00;0.00
66336;PMS1003;53139;45.576;5.304;2022-09-28T02:24:42;0.00;0.00;0.00
66336;PMS1003;53139;45.576;5.304;2022-09-28T02:27:53;0.00;0.00;0.00
66336;PMS1003;53139;45.576;5.304;2022-09-28T02:30:54;0.00;0.00;0.00
66336;PMS1003;53139;45.576;5.304;2022-09-28T02:33:55;0.00;0.00;0.00
66336;PMS1003;53139;45.576;5.304;2022-09-28T02:36:56;0.00;0.00;0.00
66336;PMS1003;53139;45.576;5.304;2022-09-28T02:39:56;0.00;0.00;0.00
66336;PMS1003;53139;45.576;5.304;2022-09-28T02:42:59;1.00;0.00;0.00
66336;PMS1003;53139;45.576;5.304;2022-09-28T02:49:22;0.00;0.00;0.00
66336;PMS1003;53139;45.576;5.304;2022-09-28T02:56:00;0.25;0.00;0.00
66336;PMS1003;53139;45.576;5.304;2022-09-28T03:08:44;0.00;0.00;0.00
66336;PMS1003;53139;45.576;5.304;2022-09-28T03:12:05;0.00;0.00;0.00
66336;PMS1003;53139;45.576;5.304;2022-09-28T03:15:19;0.75;0.00;0.00
66336;PMS1003;53139;45.576;5.304;2022-09-28T03:18:22;0.00;0.00;0.00
66336;PMS1003;53139;45.576;5.304;2022-09-28T03:21:22;1.00;0.00;0.00
66336;PMS1003;53139;45.576;5.304;2022-09-28T03:24:23;0.00;0.00;0.00
66336;PMS1003;53139;45.576;5.304;2022-09-28T03:27:23;0.00;0.00;0.00
66336;PMS1003;53139;45.576;5.304;2022-09-28T03:30:24;1.00;0.00;0.00
66336;PMS1003;53139;45.576;5.304;2022-09-28T03:33:24;0.00;0.00;0.00
66336;PMS1003;53139;45.576;5.304;2022-09-28T03:36:24;0.00;0.00;0.00
66336;PMS1003;53139;45.576;5.304;2022-09-28T03:39:25;1.00;0.00;0.00
66336;PMS1003;53139;45.576;5.304;2022-09-28T03:42:25;0.00;0.00;0.00
66336;PMS1003;53139;45.576;5.304;2022-09-28T03:45:25;1.00;0.00;0.00
66336;PMS1003;53139;45.576;5.304;2022-09-28T03:48:30;0.00;0.00;0.00
66336;PMS1003;53139;45.576;5.304;2022-09-28T03:51:31;0.00;0.00;0.00
66336;PMS1003;53139;45.576;5.304;2022-09-28T04:27:20;0.00;0.00;0.00
66336;PMS1003;53139;45.576;5.304;2022-09-28T04:30:39;1.25;1.00;0.25
66336;PMS1003;53139;45.576;5.304;2022-09-28T04:33:39;0.00;0.00;0.00
66336;PMS1003;53139;45.576;5.304;2022-09-28T04:36:40;0.00;0.00;0.00
66336;PMS1003;53139;45.576;5.304;2022-09-28T04:39:40;0.00;0.00;0.00
66336;PMS1003;53139;45.576;5.304;2022-09-28T04:42:41;0.25;0.25;0.00
66336;PMS1003;53139;45.576;5.304;2022-09-28T04:45:41;0.00;0.00;0.00
66336;PMS1003;53139;45.576;5.304;2022-09-28T04:48:41;0.50;0.00;0.00
66336;PMS1003;53139;45.576;5.304;2022-09-28T04:51:42;0.50;0.00;0.00
66336;PMS1003;53139;45.576;5.304;2022-09-28T04:54:42;0.33;0.00;0.00
66336;PMS1003;53139;45.576;5.304;2022-09-28T04:57:42;0.00;0.00;0.00
66336;PMS1003;53139;45.576;5.304;2022-09-28T05:00:43;0.50;0.00;0.00
66336;PMS1003;53139;45.576;5.304;2022-09-28T05:03:44;0.00;0.00;0.00
66336;PMS1003;53139;45.576;5.304;2022-09-28T05:06:44;0.00;0.00;0.00
66336;PMS1003;53139;45.576;5.304;2022-09-28T05:09:44;0.00;0.00;0.00
66336;PMS1003;53139;45.576;5.304;2022-09-28T05:12:45;1.00;0.00;0.00
66336;PMS1003;53139;45.576;5.304;2022-09-28T05:15:45;0.00;0.00;0.00
66336;PMS1003;53139;45.576;5.304;2022-09-28T05:18:45;0.00;0.00;0.00
66336;PMS1003;53139;45.576;5.304;2022-09-28T05:21:46;0.75;0.75;0.75
66336;PMS1003;53139;45.576;5.304;2022-09-28T05:24:47;0.00;0.00;0.00
66336;PMS1003;53139;45.576;5.304;2022-09-28T05:27:51;0.00;0.00;0.00
66336;PMS1003;53139;45.576;5.304;2022-09-28T05:31:01;0.00;0.00;0.00
66336;PMS1003;53139;45.576;5.304;2022-09-28T05:34:02;0.00;0.00;0.00
66336;PMS1003;53139;45.576;5.304;2022-09-28T05:37:03;0.00;0.00;0.00
66336;PMS1003;53139;45.576;5.304;2022-09-28T05:40:03;0.00;0.00;0.00
66336;PMS1003;53139;45.576;5.304;2022-09-28T05:43:04;0.00;0.00;0.00
66336;PMS1003;53139;45.576;5.304;2022-09-28T05:46:05;0.00;0.00;0.00
66336;PMS1003;53139;45.576;5.304;2022-09-28T05:49:05;0.00;0.00;0.00
66336;PMS1003;53139;45.576;5.304;2022-09-28T05:52:06;0.00;0.00;0.00
66336;PMS1003;53139;45.576;5.304;2022-09-28T05:55:06;0.00;0.00;0.00
66336;PMS1003;53139;45.576;5.304;2022-09-28T05:58:07;0.00;0.00;0.00
66336;PMS1003;53139;45.576;5.304;2022-09-28T06:01:07;0.00;0.00;0.00
66336;PMS1003;53139;45.576;5.304;2022-09-28T06:04:08;0.00;0.00;0.00
66336;PMS1003;53139;45.576;5.304;2022-09-28T06:07:08;0.00;0.00;0.00
66336;PMS1003;53139;45.576;5.304;2022-09-28T06:10:08;0.00;0.00;0.00
66336;PMS1003;53139;45.576;5.304;2022-09-28T06:13:09;0.00;0.00;0.00
66336;PMS1003;53139;45.576;5.304;2022-09-28T06:16:14;0.00;0.00;0.00
66336;PMS1003;53139;45.576;5.304;2022-09-28T06:19:15;0.00;0.00;0.00
66336;PMS1003;53139;45.576;5.304;2022-09-28T06:22:16;0.75;0.00;0.00
66336;PMS1003;53139;45.576;5.304;2022-09-28T06:25:16;0.00;0.00;0.00
66336;PMS1003;53139;45.576;5.304;2022-09-28T06:28:16;0.00;0.00;0.00
66336;PMS1003;53139;45.576;5.304;2022-09-28T06:31:17;0.00;0.00;0.00
66336;PMS1003;53139;45.576;5.304;2022-09-28T06:34:22;1.00;0.00;0.00
66336;PMS1003;53139;45.576;5.304;2022-09-28T06:37:23;0.00;0.00;0.00
66336;PMS1003;53139;45.576;5.304;2022-09-28T06:40:25;0.00;0.00;0.00
66336;PMS1003;53139;45.576;5.304;2022-09-28T06:43:26;1.75;0.00;0.00
66336;PMS1003;53139;45.576;5.304;2022-09-28T06:46:26;0.00;0.00;0.00
66336;PMS1003;53139;45.576;5.304;2022-09-28T06:49:27;0.50;0.00;0.00
66336;PMS1003;53139;45.576;5.304;2022-09-28T06:52:29;0.00;0.00;0.00
66336;PMS1003;53139;45.576;5.304;2022-09-28T06:55:29;0.00;0.00;0.00
66336;PMS1003;53139;45.576;5.304;2022-09-28T06:58:30;0.00;0.00;0.00
66336;PMS1003;53139;45.576;5.304;2022-09-28T07:01:31;0.00;0.00;0.00
66336;PMS1003;53139;45.576;5.304;2022-09-28T07:04:31;0.00;0.00;0.00
66336;PMS1003;53139;45.576;5.304;2022-09-28T07:07:31;1.00;0.00;0.00
66336;PMS1003;53139;45.576;5.304;2022-09-28T07:10:32;0.00;0.00;0.00
66336;PMS1003;53139;45.576;5.304;2022-09-28T07:13:32;1.25;0.25;0.00
66336;PMS1003;53139;45.576;5.304;2022-09-28T07:16:33;0.00;0.00;0.00
66336;PMS1003;53139;45.576;5.304;2022-09-28T07:19:33;0.00;0.00;0.00
66336;PMS1003;53139;45.576;5.304;2022-09-28T07:22:35;0.00;0.00;0.00
66336;PMS1003;53139;45.576;5.304;2022-09-28T07:25:35;0.50;0.00;0.00
66336;PMS1003;53139;45.576;5.304;2022-09-28T07:28:37;0.00;0.00;0.00
66336;PMS1003;53139;45.576;5.304;2022-09-28T07:31:40;0.00;0.00;0.00
66336;PMS1003;53139;45.576;5.304;2022-09-28T07:34:40;0.00;0.00;0.00
66336;PMS1003;53139;45.576;5.304;2022-09-28T07:37:43;0.00;0.00;0.00
66336;PMS1003;53139;45.576;5.304;2022-09-28T07:40:43;0.00;0.00;0.00
66336;PMS1003;53139;45.576;5.304;2022-09-28T07:44:02;1.00;0.00;0.00
66336;PMS1003;53139;45.576;5.304;2022-09-28T07:47:06;0.00;0.00;0.00
66336;PMS1003;53139;45.576;5.304;2022-09-28T07:50:06;0.00;0.00;0.00
66336;PMS1003;53139;45.576;5.304;2022-09-28T07:53:07;0.00;0.00;0.00
66336;PMS1003;53139;45.576;5.304;2022-09-28T07:56:07;0.00;0.00;0.00
66336;PMS1003;53139;45.576;5.304;2022-09-28T07:59:08;0.00;0.00;0.00
66336;PMS1003;53139;45.576;5.304;2022-09-28T08:02:09;0.00;0.00;0.00
66336;PMS1003;53139;45.576;5.304;2022-09-28T08:05:10;0.00;0.00;0.00
66336;PMS1003;53139;45.576;5.304;2022-09-28T08:08:11;0.00;0.00;0.00
66336;PMS1003;53139;45.576;5.304;2022-09-28T08:11:15;0.00;0.00;0.00
66336;PMS1003;53139;45.576;5.304;2022-09-28T08:14:17;0.00;0.00;0.00
66336;PMS1003;53139;45.576;5.304;2022-09-28T08:17:18;0.00;0.00;0.00
66336;PMS1003;53139;45.576;5.304;2022-09-28T08:20:18;0.00;0.00;0.00
66336;PMS1003;53139;45.576;5.304;2022-09-28T08:23:37;0.00;0.00;0.00
66336;PMS1003;53139;45.576;5.304;2022-09-28T08:26:38;0.00;0.00;0.00
66336;PMS1003;53139;45.576;5.304;2022-09-28T08:29:38;0.00;0.00;0.00
66336;PMS1003;53139;45.576;5.304;2022-09-28T08:32:44;0.00;0.00;0.00
66336;PMS1003;53139;45.576;5.304;2022-09-28T08:35:57;2.00;0.00;0.00
66336;PMS1003;53139;45.576;5.304;2022-09-28T08:38:59;0.00;0.00;0.00
66336;PMS1003;53139;45.576;5.304;2022-09-28T08:45:25;0.00;0.00;0.00
66336;PMS1003;53139;45.576;5.304;2022-09-28T08:48:29;0.00;0.00;0.00
66336;PMS1003;53139;45.576;5.304;2022-09-28T08:55:21;1.00;0.00;0.00
66336;PMS1003;53139;45.576;5.304;2022-09-28T08:58:31;0.00;0.00;0.00
66336;PMS1003;53139;45.576;5.304;2022-09-28T09:01:36;0.00;0.00;0.00
66336;PMS1003;53139;45.576;5.304;2022-09-28T09:04:41;0.00;0.00;0.00
66336;PMS1003;53139;45.576;5.304;2022-09-28T09:11:14;0.00;0.00;0.00
66336;PMS1003;53139;45.576;5.304;2022-09-28T09:20:49;0.75;0.00;0.00
66336;PMS1003;53139;45.576;5.304;2022-09-28T09:27:53;0.00;0.00;0.00
66336;PMS1003;53139;45.576;5.304;2022-09-28T09:31:12;0.00;0.00;0.00
66336;PMS1003;53139;45.576;5.304;2022-09-28T09:34:32;0.50;0.00;0.00
66336;PMS1003;53139;45.576;5.304;2022-09-28T09:37:49;0.00;0.00;0.00
66336;PMS1003;53139;45.576;5.304;2022-09-28T09:47:39;0.50;0.00;0.00
66336;PMS1003;53139;45.576;5.304;2022-09-28T09:50:52;0.25;0.00;0.00
66336;PMS1003;53139;45.576;5.304;2022-09-28T09:54:02;0.00;0.00;0.00
66336;PMS1003;53139;45.576;5.304;2022-09-28T10:00:33;0.00;0.00;0.00
66336;PMS1003;53139;45.576;5.304;2022-09-28T10:03:34;1.75;1.00;0.00
66336;PMS1003;53139;45.576;5.304;2022-09-28T10:06:38;0.00;0.00;0.00
66336;PMS1003;53139;45.576;5.304;2022-09-28T10:09:42;0.00;0.00;0.00
66336;PMS1003;53139;45.576;5.304;2022-09-28T10:12:45;0.00;0.00;0.00
66336;PMS1003;53139;45.576;5.304;2022-09-28T10:15:47;1.00;0.00;0.00
66336;PMS1003;53139;45.576;5.304;2022-09-28T10:18:50;1.00;0.00;0.00
66336;PMS1003;53139;45.576;5.304;2022-09-28T10:21:50;0.50;0.00;0.00
66336;PMS1003;53139;45.576;5.304;2022-09-28T10:24:53;0.00;0.00;0.00
66336;PMS1003;53139;45.576;5.304;2022-09-28T10:27:56;0.00;0.00;0.00
66336;PMS1003;53139;45.576;5.304;2022-09-28T10:30:58;0.00;0.00;0.00
66336;PMS1003;53139;45.576;5.304;2022-09-28T10:33:59;0.00;0.00;0.00
66336;PMS1003;53139;45.576;5.304;2022-09-28T10:37:01;0.00;0.00;0.00
66336;PMS1003;53139;45.576;5.304;2022-09-28T10:40:03;3.00;0.00;0.00
66336;PMS1003;53139;45.576;5.304;2022-09-28T10:43:04;0.75;0.00;0.00
66336;PMS1003;53139;45.576;5.304;2022-09-28T10:46:19;0.00;0.00;0.00
66336;PMS1003;53139;45.576;5.304;2022-09-28T10:49:22;0.00;0.00;0.00
66336;PMS1003;53139;45.576;5.304;2022-09-28T10:52:40;0.00;0.00;0.00
66336;PMS1003;53139;45.576;5.304;2022-09-28T10:55:41;1.50;0.00;0.00
66336;PMS1003;53139;45.576;5.304;2022-09-28T10:58:59;0.00;0.00;0.00
66336;PMS1003;53139;45.576;5.304;2022-09-28T11:02:22;0.00;0.00;0.00
66336;PMS1003;53139;45.576;5.304;2022-09-28T11:05:24;0.00;0.00;0.00
66336;PMS1003;53139;45.576;5.304;2022-09-28T11:08:45;0.00;0.00;0.00
66336;PMS1003;53139;45.576;5.304;2022-09-28T11:11:48;0.00;0.00;0.00
66336;PMS1003;53139;45.576;5.304;2022-09-28T11:14:54;1.00;0.00;0.00
66336;PMS1003;53139;45.576;5.304;2022-09-28T11:21:21;0.00;0.00;0.00
66336;PMS1003;53139;45.576;5.304;2022-09-28T11:24:26;0.00;0.00;0.00
66336;PMS1003;53139;45.576;5.304;2022-09-28T11:27:26;0.25;0.00;0.00
66336;PMS1003;53139;45.576;5.304;2022-09-28T11:30:31;0.00;0.00;0.00
66336;PMS1003;53139;45.576;5.304;2022-09-28T11:33:39;0.75;0.00;0.00
66336;PMS1003;53139;45.576;5.304;2022-09-28T11:36:50;0.00;0.00;0.00
66336;PMS1003;53139;45.576;5.304;2022-09-28T11:50:05;0.00;0.00;0.00
66336;PMS1003;53139;45.576;5.304;2022-09-28T11:56:39;0.00;0.00;0.00
66336;PMS1003;53139;45.576;5.304;2022-09-28T11:59:52;0.00;0.00;0.00
66336;PMS1003;53139;45.576;5.304;2022-09-28T12:03:05;0.00;0.00;0.00
66336;PMS1003;53139;45.576;5.304;2022-09-28T12:06:16;0.75;0.00;0.00
66336;PMS1003;53139;45.576;5.304;2022-09-28T12:09:27;0.00;0.00;0.00
66336;PMS1003;53139;45.576;5.304;2022-09-28T12:12:38;1.00;0.00;0.00
66336;PMS1003;53139;45.576;5.304;2022-09-28T12:22:23;0.00;0.00;0.00
66336;PMS1003;53139;45.576;5.304;2022-09-28T12:25:32;0.00;0.00;0.00
66336;PMS1003;53139;45.576;5.304;2022-09-28T12:28:39;1.00;0.00;0.00
66336;PMS1003;53139;45.576;5.304;2022-09-28T12:31:52;0.00;0.00;0.00
66336;PMS1003;53139;45.576;5.304;2022-09-28T12:35:22;0.00;0.00;0.00
66336;PMS1003;53139;45.576;5.304;2022-09-28T13:04:38;0.00;0.00;0.00
66336;PMS1003;53139;45.576;5.304;2022-09-28T13:21:11;0.00;0.00;0.00
66336;PMS1003;53139;45.576;5.304;2022-09-28T13:24:23;0.00;0.00;0.00
66336;PMS1003;53139;45.576;5.304;2022-09-28T13:27:28;0.00;0.00;0.00
66336;PMS1003;53139;45.576;5.304;2022-09-28T13:30:37;1.00;0.00;0.00
66336;PMS1003;53139;45.576;5.304;2022-09-28T13:33:39;0.00;0.00;0.00
66336;PMS1003;53139;45.576;5.304;2022-09-28T13:36:42;1.25;0.00;0.00
66336;PMS1003;53139;45.576;5.304;2022-09-28T13:45:51;0.00;0.00;0.00
66336;PMS1003;53139;45.576;5.304;2022-09-28T13:48:59;0.00;0.00;0.00
66336;PMS1003;53139;45.576;5.304;2022-09-28T13:52:42;1.00;0.00;0.00
66336;PMS1003;53139;45.576;5.304;2022-09-28T13:56:56;1.00;0.00;0.00
66336;PMS1003;53139;45.576;5.304;2022-09-28T14:06:36;0.00;0.00;0.00
66336;PMS1003;53139;45.576;5.304;2022-09-28T14:09:40;0.00;0.00;0.00
66336;PMS1003;53139;45.576;5.304;2022-09-28T14:13:00;1.00;1.00;0.00
66336;PMS1003;53139;45.576;5.304;2022-09-28T14:19:22;1.50;0.50;0.00
66336;PMS1003;53139;45.576;5.304;2022-09-28T14:26:02;0.00;0.00;0.00
66336;PMS1003;53139;45.576;5.304;2022-09-28T14:29:20;0.00;0.00;0.00
66336;PMS1003;53139;45.576;5.304;2022-09-28T14:32:30;0.00;0.00;0.00
66336;PMS1003;53139;45.576;5.304;2022-09-28T14:35:39;0.00;0.00;0.00
66336;PMS1003;53139;45.576;5.304;2022-09-28T14:38:46;0.00;0.00;0.00
66336;PMS1003;53139;45.576;5.304;2022-09-28T14:42:08;0.00;0.00;0.00
66336;PMS1003;53139;45.576;5.304;2022-09-28T14:48:18;1.00;0.00;0.00
66336;PMS1003;53139;45.576;5.304;2022-09-28T14:54:44;0.00;0.00;0.00
66336;PMS1003;53139;45.576;5.304;2022-09-28T14:57:51;0.00;0.00;0.00
66336;PMS1003;53139;45.576;5.304;2022-09-28T15:00:56;0.00;0.00;0.00
66336;PMS1003;53139;45.576;5.304;2022-09-28T15:04:03;0.00;0.00;0.00
66336;PMS1003;53139;45.576;5.304;2022-09-28T15:07:20;0.00;0.00;0.00
66336;PMS1003;53139;45.576;5.304;2022-09-28T15:10:33;0.00;0.00;0.00
66336;PMS1003;53139;45.576;5.304;2022-09-28T15:13:36;0.00;0.00;0.00
66336;PMS1003;53139;45.576;5.304;2022-09-28T15:16:39;0.00;0.00;0.00
66336;PMS1003;53139;45.576;5.304;2022-09-28T15:22:44;0.00;0.00;0.00
66336;PMS1003;53139;45.576;5.304;2022-09-28T15:25:50;0.00;0.00;0.00
66336;PMS1003;53139;45.576;5.304;2022-09-28T15:28:51;0.50;0.00;0.00
66336;PMS1003;53139;45.576;5.304;2022-09-28T15:31:52;0.00;0.00;0.00
66336;PMS1003;53139;45.576;5.304;2022-09-28T15:34:53;0.00;0.00;0.00
66336;PMS1003;53139;45.576;5.304;2022-09-28T15:37:55;0.00;0.00;0.00
66336;PMS1003;53139;45.576;5.304;2022-09-28T15:40:56;0.00;0.00;0.00
66336;PMS1003;53139;45.576;5.304;2022-09-28T15:47:10;0.25;0.00;0.00
66336;PMS1003;53139;45.576;5.304;2022-09-28T15:50:20;0.75;0.00;0.00
66336;PMS1003;53139;45.576;5.304;2022-09-28T15:53:23;0.00;0.00;0.00
66336;PMS1003;53139;45.576;5.304;2022-09-28T15:56:24;0.00;0.00;0.00
66336;PMS1003;53139;45.576;5.304;2022-09-28T15:59:35;0.00;0.00;0.00
66336;PMS1003;53139;45.576;5.304;2022-09-28T16:02:42;0.00;0.00;0.00
66336;PMS1003;53139;45.576;5.304;2022-09-28T16:06:08;0.00;0.00;0.00
66336;PMS1003;53139;45.576;5.304;2022-09-28T16:09:28;1.00;0.00;0.00
66336;PMS1003;53139;45.576;5.304;2022-09-28T16:15:36;0.00;0.00;0.00
66336;PMS1003;53139;45.576;5.304;2022-09-28T16:18:38;0.00;0.00;0.00
66336;PMS1003;53139;45.576;5.304;2022-09-28T16:21:43;1.50;0.00;0.00
66336;PMS1003;53139;45.576;5.304;2022-09-28T16:24:52;1.00;0.00;0.00
66336;PMS1003;53139;45.576;5.304;2022-09-28T16:27:54;0.00;0.00;0.00
66336;PMS1003;53139;45.576;5.304;2022-09-28T16:31:03;0.00;0.00;0.00
66336;PMS1003;53139;45.576;5.304;2022-09-28T16:34:08;0.50;0.00;0.00
66336;PMS1003;53139;45.576;5.304;2022-09-28T16:37:25;0.00;0.00;0.00
66336;PMS1003;53139;45.576;5.304;2022-09-28T16:40:33;1.50;0.00;0.00
66336;PMS1003;53139;45.576;5.304;2022-09-28T16:43:37;1.00;0.00;0.00
66336;PMS1003;53139;45.576;5.304;2022-09-28T16:46:39;0.75;0.00;0.00
66336;PMS1003;53139;45.576;5.304;2022-09-28T16:49:41;0.00;0.00;0.00
66336;PMS1003;53139;45.576;5.304;2022-09-28T16:52:42;0.00;0.00;0.00
66336;PMS1003;53139;45.576;5.304;2022-09-28T16:56:01;0.00;0.00;0.00
66336;PMS1003;53139;45.576;5.304;2022-09-28T16:59:03;0.00;0.00;0.00
66336;PMS1003;53139;45.576;5.304;2022-09-28T17:02:18;0.00;0.00;0.00
66336;PMS1003;53139;45.576;5.304;2022-09-28T17:05:24;0.00;0.00;0.00
66336;PMS1003;53139;45.576;5.304;2022-09-28T17:08:24;0.75;0.00;0.00
66336;PMS1003;53139;45.576;5.304;2022-09-28T17:11:25;0.00;0.00;0.00
66336;PMS1003;53139;45.576;5.304;2022-09-28T17:14:25;1.00;0.00;0.00
66336;PMS1003;53139;45.576;5.304;2022-09-28T17:17:25;0.75;0.75;0.00
66336;PMS1003;53139;45.576;5.304;2022-09-28T17:20:28;1.50;1.50;1.00
66336;PMS1003;53139;45.576;5.304;2022-09-28T17:23:31;1.25;1.25;1.00
66336;PMS1003;53139;45.576;5.304;2022-09-28T17:26:32;0.00;0.00;0.00
66336;PMS1003;53139;45.576;5.304;2022-09-28T17:29:38;1.50;1.50;1.00
66336;PMS1003;53139;45.576;5.304;2022-09-28T17:33:17;2.00;2.00;1.75
66336;PMS1003;53139;45.576;5.304;2022-09-28T17:36:18;0.75;0.75;0.75
66336;PMS1003;53139;45.576;5.304;2022-09-28T17:39:20;2.25;2.00;2.00
66336;PMS1003;53139;45.576;5.304;2022-09-28T17:42:23;0.75;0.75;0.00
66336;PMS1003;53139;45.576;5.304;2022-09-28T17:45:27;2.00;1.00;1.00
66336;PMS1003;53139;45.576;5.304;2022-09-28T17:48:30;3.00;3.00;2.75
66336;PMS1003;53139;45.576;5.304;2022-09-28T17:51:31;1.00;1.00;1.00
66336;PMS1003;53139;45.576;5.304;2022-09-28T17:54:44;1.25;1.00;1.00
66336;PMS1003;53139;45.576;5.304;2022-09-28T17:57:46;0.75;0.25;0.00
66336;PMS1003;53139;45.576;5.304;2022-09-28T18:00:48;5.25;3.25;1.75
66336;PMS1003;53139;45.576;5.304;2022-09-28T18:03:56;1.00;1.00;1.00
66336;PMS1003;53139;45.576;5.304;2022-09-28T18:07:07;0.75;0.75;0.75
66336;PMS1003;53139;45.576;5.304;2022-09-28T18:10:11;1.25;1.00;1.00
66336;PMS1003;53139;45.576;5.304;2022-09-28T18:13:29;21.50;18.50;13.00
66336;PMS1003;53139;45.576;5.304;2022-09-28T18:16:32;61.75;47.50;30.00
66336;PMS1003;53139;45.576;5.304;2022-09-28T18:19:32;16.25;14.50;10.25
66336;PMS1003;53139;45.576;5.304;2022-09-28T18:22:36;6.25;5.50;4.75
66336;PMS1003;53139;45.576;5.304;2022-09-28T18:25:44;4.25;4.25;3.75
66336;PMS1003;53139;45.576;5.304;2022-09-28T18:28:45;3.25;3.25;3.00
66336;PMS1003;53139;45.576;5.304;2022-09-28T18:31:45;6.75;6.75;4.25
66336;PMS1003;53139;45.576;5.304;2022-09-28T18:34:47;9.75;8.00;6.75
66336;PMS1003;53139;45.576;5.304;2022-09-28T18:37:48;2.75;1.25;1.00
66336;PMS1003;53139;45.576;5.304;2022-09-28T18:40:49;1.00;1.00;1.00
66336;PMS1003;53139;45.576;5.304;2022-09-28T18:43:49;1.75;1.00;0.75
66336;PMS1003;53139;45.576;5.304;2022-09-28T18:46:50;3.00;1.25;1.00
66336;PMS1003;53139;45.576;5.304;2022-09-28T18:49:50;5.00;1.75;1.75
66336;PMS1003;53139;45.576;5.304;2022-09-28T18:52:50;3.00;3.00;3.00
66336;PMS1003;53139;45.576;5.304;2022-09-28T18:55:51;3.75;3.00;3.00
66336;PMS1003;53139;45.576;5.304;2022-09-28T18:58:51;3.00;1.67;1.00
66336;PMS1003;53139;45.576;5.304;2022-09-28T19:01:51;2.25;2.00;2.00
66336;PMS1003;53139;45.576;5.304;2022-09-28T19:04:57;0.00;0.00;0.00
66336;PMS1003;53139;45.576;5.304;2022-09-28T19:08:05;3.00;1.75;1.00
66336;PMS1003;53139;45.576;5.304;2022-09-28T19:11:12;3.00;2.25;2.00
66336;PMS1003;53139;45.576;5.304;2022-09-28T19:14:14;2.25;2.25;1.00
66336;PMS1003;53139;45.576;5.304;2022-09-28T19:17:15;3.50;3.50;3.00
66336;PMS1003;53139;45.576;5.304;2022-09-28T19:20:17;2.00;1.75;1.00
66336;PMS1003;53139;45.576;5.304;2022-09-28T19:23:23;3.00;3.00;2.00
66336;PMS1003;53139;45.576;5.304;2022-09-28T19:26:24;2.00;2.00;1.00
66336;PMS1003;53139;45.576;5.304;2022-09-28T19:29:26;1.00;1.00;1.00
66336;PMS1003;53139;45.576;5.304;2022-09-28T19:32:27;1.75;1.00;0.25
66336;PMS1003;53139;45.576;5.304;2022-09-28T19:35:28;0.75;0.75;0.75
66336;PMS1003;53139;45.576;5.304;2022-09-28T19:38:32;0.75;0.50;0.50
66336;PMS1003;53139;45.576;5.304;2022-09-28T19:41:34;0.75;0.75;0.75
66336;PMS1003;53139;45.576;5.304;2022-09-28T19:44:42;1.25;0.50;0.50
66336;PMS1003;53139;45.576;5.304;2022-09-28T19:47:42;5.00;5.00;4.00
66336;PMS1003;53139;45.576;5.304;2022-09-28T19:50:43;5.50;4.00;4.00
66336;PMS1003;53139;45.576;5.304;2022-09-28T19:53:45;5.25;4.50;3.75
66336;PMS1003;53139;45.576;5.304;2022-09-28T19:56:45;3.25;3.00;3.00
66336;PMS1003;53139;45.576;5.304;2022-09-28T19:59:47;4.00;3.25;2.75
66336;PMS1003;53139;45.576;5.304;2022-09-28T20:02:47;2.00;2.00;2.00
66336;PMS1003;53139;45.576;5.304;2022-09-28T20:05:47;1.00;1.00;1.00
66336;PMS1003;53139;45.576;5.304;2022-09-28T20:08:48;4.00;3.50;3.50
66336;PMS1003;53139;45.576;5.304;2022-09-28T20:11:49;3.00;2.00;1.50
66336;PMS1003;53139;45.576;5.304;2022-09-28T20:14:50;2.00;2.00;2.00
66336;PMS1003;53139;45.576;5.304;2022-09-28T20:17:51;1.00;1.00;1.00
66336;PMS1003;53139;45.576;5.304;2022-09-28T20:20:59;1.00;1.00;0.25
66336;PMS1003;53139;45.576;5.304;2022-09-28T20:24:05;3.75;3.75;3.00
66336;PMS1003;53139;45.576;5.304;2022-09-28T20:27:06;2.75;1.25;1.00
66336;PMS1003;53139;45.576;5.304;2022-09-28T20:30:07;0.00;0.00;0.00
66336;PMS1003;53139;45.576;5.304;2022-09-28T20:33:08;0.00;0.00;0.00
66336;PMS1003;53139;45.576;5.304;2022-09-28T20:36:09;6.25;4.50;4.00
66336;PMS1003;53139;45.576;5.304;2022-09-28T20:39:11;2.75;1.25;1.00
66336;PMS1003;53139;45.576;5.304;2022-09-28T20:42:12;2.00;0.00;0.00
66336;PMS1003;53139;45.576;5.304;2022-09-28T20:45:14;2.75;2.50;2.00
66336;PMS1003;53139;45.576;5.304;2022-09-28T20:48:14;3.00;1.00;1.00
66336;PMS1003;53139;45.576;5.304;2022-09-28T20:51:16;0.00;0.00;0.00
66336;PMS1003;53139;45.576;5.304;2022-09-28T20:54:19;0.00;0.00;0.00
66336;PMS1003;53139;45.576;5.304;2022-09-28T20:57:19;0.00;0.00;0.00
66336;PMS1003;53139;45.576;5.304;2022-09-28T21:00:20;0.00;0.00;0.00
66336;PMS1003;53139;45.576;5.304;2022-09-28T21:03:20;0.25;0.00;0.00
